Bookmark and Share
Track history (hours):
 

Green Ice

Last reported at 2014-Apr-19 08:33 UTC. Time now 2014-Apr-19 09:29 UTC.
Position N 59°42' E 023°51'.

Length 86 m; draft 5.4 m.

Type: Cargo ship. MMSI: 311411000.

NotesDate/timePositionNaut miles runAvg speedWind from/ knotsBaromVisibWave heightAir tempDewpointWater temp
2014-Apr-19 08:33N 59°42' E 023°51'2512.6
2014-Apr-19 06:33N 59°48' E 024°39'1212.4
2014-Apr-19 05:33N 59°51' E 025°03'3912.5
2014-Apr-19 02:28N 59°59' E 026°19'1112.2
2014-Apr-19 01:33N 60°01' E 026°41'10311.5
2014-Apr-18 16:31N 59°54' E 030°07'3 0.1
2014-Apr-17 05:33N 59°53' E 030°11'10912.1
2014-Apr-16 20:33N 59°59' E 026°35'4814.3
2014-Apr-16 17:11N 59°48' E 025°02'914.2
2014-Apr-16 16:33N 59°45' E 024°45'1414.2
2014-Apr-16 15:33N 59°41' E 024°17'1514.1
2014-Apr-16 14:30N 59°37' E 023°49'1314.3
2014-Apr-16 13:33N 59°32' E 023°24'  
2014-Apr-13 18:33N 54°13' E 014°42'1313.2
2014-Apr-13 17:34N 54°05' E 014°24'1010.5
2014-Apr-13 16:34N 53°56' E 014°17'2 1.9
2014-Apr-13 15:31N 53°54' E 014°16'0 0.0
2014-Apr-13 14:31N 53°54' E 014°16'0 0.0
2014-Apr-13 13:31N 53°54' E 014°16'0 0.0
2014-Apr-13 12:31N 53°54' E 014°16'0 0.0
2014-Apr-13 11:28N 53°54' E 014°16'0 0.0
2014-Apr-13 10:31N 53°54' E 014°16'2 2.2
2014-Apr-13 09:33N 53°56' E 014°17'9 9.1
2014-Apr-13 08:33N 54°05' E 014°14'1212.3
2014-Apr-13 07:33N 54°16' E 014°06'1312.6
2014-Apr-13 06:33N 54°26' E 013°52'1413.6
2014-Apr-13 05:33N 54°37' E 013°41'1413.8
2014-Apr-13 04:33N 54°46' E 013°22'1312.8
2014-Apr-13 03:31N 54°56' E 013°06'2512.8
2014-Apr-13 01:33N 55°15' E 012°38'1212.4
2014-Apr-13 00:33N 55°28' E 012°40'10 9.9
2014-Apr-12 23:33N 55°38' E 012°42'1010.1
2014-Apr-12 22:33N 55°48' E 012°41'1211.8
2014-Apr-12 21:33N 55°59' E 012°38'1211.8
2014-Apr-12 20:33N 56°09' E 012°26'1413.5
2014-Apr-12 19:33N 56°17' E 012°06'4313.4
2014-Apr-12 16:19N 56°58' E 011°44'1113.0
2014-Apr-12 15:30N 57°09' E 011°38'1212.7
2014-Apr-12 14:33N 57°20' E 011°36'1312.6
2014-Apr-12 13:33N 57°33' E 011°36'9 9.4
2014-Apr-12 12:33N 57°40' E 011°48'0 0.0
2014-Apr-12 11:33N 57°40' E 011°48'4 4.5
2014-Apr-12 10:33N 57°37' E 011°41'1111.2
2014-Apr-12 09:33N 57°40' E 011°21'1313.3
2014-Apr-12 08:34N 57°45' E 010°58'1414.2
2014-Apr-12 07:33N 57°49' E 010°32'13313.3
2014-Apr-11 21:34N 58°06' E 006°23'1312.8
2014-Apr-11 20:34N 58°14' E 006°04'1312.7
2014-Apr-11 19:33N 58°22' E 005°45'1313.3
2014-Apr-11 18:33N 58°30' E 005°25'  

Dump ship's entire track history

sailing weather and tide predictions

Green Ice — C6SO4 — position and weather